Aérodrome :
LOGIN :

S'inscrire | Disclaimer

   EN    FR    IT 

 










Légende :    VFR   VFR Marginal   IFR   IFR Intensif   IFR Très Intensif
Visi : 
Plafond : 
>= 8 km
>= 3000ft
5 à 8 km
1000 à 3000 ft
1500m à 5 km
500 à 1000 ft
800 à 1500m
200 à 500 ft
< 800m
< 200 ft
Symboles :   Orages  Brouillard  Fortes neiges  Fortes précipitations  Vent > 20 kt
SIGMETs :   Divers  Orages  Givrage  Turbulence  Onde Orograph.  Cendres Volcan.







- Altitude de l'aérodrome : 171 ft
- Code IATA : EGC
- Voir les cartes d'approche


LFBE - Bergerac

DERNIER METAR :
  • 231530Z AUTO VRB02KT 9999 SCT006 BKN011 OVC017 12/11 Q1029 TEMPO 2000 -DZ OVC003

METARs EXPIRÉS :
  • 231500Z AUTO 21003KT 150V240 9999 OVC005 12/11 Q1029 TEMPO 2000 -DZ
  • 231430Z AUTO 21005KT 9999 OVC006 12/11 Q1029 TEMPO 2000 -DZ OVC003
  • 231400Z AUTO 18004KT 9999 OVC006 12/11 Q1029 TEMPO 2000 -DZ OVC003
  • 231330Z AUTO 19003KT 160V230 9999 OVC006 12/10 Q1029 TEMPO 2000 -DZ OVC003
  • 231300Z AUTO 18003KT 150V220 9999 OVC005 11/10 Q1029 TEMPO 2000 -DZ

TAF TAF LFBE
Valide du 23 à 12h jusqu'au 24 à 12h UTC


231100Z 2312/2412 15005KT 7000 BKN010
TEMPO 2312/2319 2000 -DZ OVC003
TEMPO 2323/2403 BKN020
BECMG 2403/2405 BKN005
PROB30
TEMPO 2404/2406 0800 BCFG
BECMG 2410/2412 CAVOK
Pas de NOTAMs connus pour ce terrain.



MET'MAP, la Météo Aéronautique d'un coup d'oeil ! - Copyright ORBIFLY Décembre 2007 - Disclaimer

ORBIFLY MET'MAP TEAM :

Programmation & Développement : Alexandra Zaïnal
Conception & Développement : Baudouin d'Aumeries
Co-Programmation & Développement : Marc-Olivier Méhu
Soutien technique & logistique : Manuel Goepfert

Contact : metmap@orbifly.com




SOURCES & CREDITS :

   NOAA